Tsu, Japan
Current Conditions -  °F | °C
As of 12:30 AM on Wednesday 22 Oct 2014 (Local Time) from RJGG Reporting Station
Rain Showers Rain Showers  
Wind Chill: 68°   Ceiling: 11000
Heat Index: 68°   Visibility: 3mi
Dew Point: 66°   Wind: 5mph
Humidity: 94%   Direction: 110°ESE
Pressure: 29.85"   Gusts: NA
Location:  34.72°N, 136.51°E
Report Text: RJGG 211530Z 11004KT 5000 -SHRA BR FEW004 SCT010 BKN110 20/19 Q1011 BECMG 06005KT TEMPO 4000 -SHRA BR
Loading
Personal Weather Stations






























Interactive Weather Map
Tropical Storm Tracking
New forecast layout! Learn more

10-Day Weather Forecast

Advertisements
Track Severe Weather on mobile